Minneapolis, Minnesota
Traffic Map
Current Weather Conditions
Minneapolis, Minnesota
Overcast Haze
Overcast

Feels Like: 1°
Wind Chill: Ceiling: 400
Heat Index: Visibility: 5mi
Dew Point: Wind: 5mph
Humidity: 100% Direction: 350° (N)
Pressure: 29.65in Gusts: 0mph
Raw Report DataKMSP 172353Z 35004KT 5SM BR OVC004 03/03 A2965 RMK AO2 DZE50 SLP045 P0000 60004 T00330033 10033 20028 53010
Traffic Incident Summary
Active as of:
Severity:
Category:
InformationThere was an issue retrieving the traffic information for this location. Please try a different location or try again shortly.
Advertisements